Time;durP1;ratioP1;P1;durP2;ratioP2;P2;SDS_P1;SDS_P2;PMS_P1;PMS_P2;Temp;Humidity;BMP_temperature;BMP_pressure;BME280_temperature;BME280_humidity;BME280_pressure;Samples;Min_cycle;Max_cycle;Signal;HPM_P1;HPM_P2
2023/09/05 00:01:52;;;;;;;3.50;3.10;;;23.70;67.80;;;;;;5093333;28;20538;-63
2023/09/05 00:04:19;;;;;;;6.47;2.30;;;23.70;67.80;;;;;;5092681;28;20203;-63
2023/09/05 00:06:47;;;;;;;3.97;2.70;;;23.70;67.90;;;;;;5094508;28;20200;-63
2023/09/05 00:09:17;;;;;;;2.90;2.40;;;23.70;68.00;;;;;;5091035;28;20197;-63
2023/09/05 00:11:47;;;;;;;2.90;2.60;;;23.70;68.50;;;;;;5102408;28;20205;-63
2023/09/05 00:14:17;;;;;;;5.70;3.27;;;23.60;68.60;;;;;;5097383;28;20193;-63
2023/09/05 00:16:44;;;;;;;3.17;2.67;;;23.60;68.80;;;;;;5096241;28;20220;-64
2023/09/05 00:19:12;;;;;;;4.33;2.97;;;23.60;69.10;;;;;;5091278;28;20266;-63
2023/09/05 00:21:39;;;;;;;3.70;3.10;;;23.60;69.50;;;;;;5104194;28;20291;-64
2023/09/05 00:24:31;;;;;;;6.07;2.40;;;23.60;70.00;;;;;;5100222;28;20640;-63
2023/09/05 00:27:04;;;;;;;4.17;2.73;;;23.60;70.50;;;;;;5095539;28;20224;-63
2023/09/05 00:29:31;;;;;;;8.13;3.13;;;23.50;70.70;;;;;;5098159;28;20189;-63
2023/09/05 00:31:59;;;;;;;6.63;2.57;;;23.50;70.80;;;;;;5097542;28;20224;-63
2023/09/05 00:34:31;;;;;;;8.23;3.20;;;23.50;71.10;;;;;;5092749;28;20625;-64
2023/09/05 00:37:06;;;;;;;4.40;3.00;;;23.50;71.50;;;;;;5098411;28;20232;-63
2023/09/05 00:39:34;;;;;;;3.37;2.70;;;23.30;71.60;;;;;;5098197;28;20527;-63
2023/09/05 00:42:08;;;;;;;3.80;2.87;;;23.30;71.90;;;;;;5097465;28;20644;-63
2023/09/05 00:44:36;;;;;;;3.57;2.77;;;23.30;72.10;;;;;;5095229;28;20609;-63
2023/09/05 00:47:04;;;;;;;6.20;3.30;;;23.30;72.30;;;;;;5092893;28;20216;-63
2023/09/05 00:49:39;;;;;;;4.37;3.03;;;23.30;72.20;;;;;;5090986;28;20202;-63
2023/09/05 00:52:09;;;;;;;4.57;3.13;;;23.30;72.10;;;;;;5088038;28;20287;-64
2023/09/05 00:54:37;;;;;;;4.13;3.03;;;23.30;72.30;;;;;;5094431;28;20221;-64
2023/09/05 00:57:05;;;;;;;3.80;3.03;;;23.30;72.80;;;;;;5094259;28;20241;-64
2023/09/05 00:59:32;;;;;;;5.87;3.17;;;23.30;73.10;;;;;;5094816;28;20197;-64
2023/09/05 01:02:01;;;;;;;3.93;2.90;;;23.40;73.30;;;;;;5087062;28;20208;-64
2023/09/05 01:04:33;;;;;;;3.83;3.20;;;23.40;73.20;;;;;;5097435;28;20223;-64
2023/09/05 01:07:16;;;;;;;3.23;2.90;;;23.40;73.60;;;;;;5102834;28;20199;-63
2023/09/05 01:09:43;;;;;;;10.70;2.77;;;23.40;73.90;;;;;;5101088;28;20209;-63
2023/09/05 01:12:10;;;;;;;5.00;2.80;;;23.40;73.90;;;;;;5102406;28;20196;-63
2023/09/05 01:14:38;;;;;;;5.07;2.93;;;23.40;74.00;;;;;;5099891;28;20220;-63
2023/09/05 01:17:05;;;;;;;3.37;3.07;;;23.40;74.10;;;;;;5096755;28;20618;-63
2023/09/05 01:19:34;;;;;;;5.93;3.23;;;23.40;74.20;;;;;;5097270;28;20213;-63
2023/09/05 01:22:13;;;;;;;7.83;2.50;;;23.40;73.90;;;;;;5096556;28;20525;-64
2023/09/05 01:24:42;;;;;;;6.30;2.70;;;23.40;73.50;;;;;;5098667;28;20220;-63
2023/09/05 01:27:11;;;;;;;3.47;2.70;;;23.40;73.20;;;;;;5093778;28;20280;-64
2023/09/05 01:29:40;;;;;;;4.97;3.17;;;23.30;72.90;;;;;;5098974;28;20216;-63
2023/09/05 01:32:09;;;;;;;8.90;2.93;;;23.30;73.10;;;;;;5095028;28;20211;-63
2023/09/05 01:34:37;;;;;;;4.40;2.80;;;23.30;73.40;;;;;;5089857;28;20208;-63
2023/09/05 01:37:05;;;;;;;5.23;3.00;;;23.30;73.50;;;;;;5091909;28;20635;-63
2023/09/05 01:39:32;;;;;;;9.20;3.73;;;23.30;73.50;;;;;;5105416;28;20309;-63
2023/09/05 01:41:59;;;;;;;6.13;4.10;;;23.30;73.30;;;;;;5090490;28;20629;-63
2023/09/05 01:44:26;;;;;;;7.17;4.53;;;23.30;73.30;;;;;;5092092;28;20194;-63
2023/09/05 01:46:53;;;;;;;4.20;3.57;;;23.30;73.10;;;;;;5103647;28;20202;-63
2023/09/05 01:49:21;;;;;;;4.97;4.27;;;23.30;73.10;;;;;;5092732;28;20212;-65
2023/09/05 01:51:48;;;;;;;9.67;4.93;;;23.30;73.10;;;;;;5099831;28;20272;-64
2023/09/05 01:54:16;;;;;;;9.13;5.40;;;23.30;73.30;;;;;;5095929;28;20220;-63
2023/09/05 01:56:43;;;;;;;5.83;5.20;;;23.30;73.30;;;;;;5098703;28;20259;-63
2023/09/05 01:59:11;;;;;;;7.30;5.50;;;23.30;73.40;;;;;;5102304;28;20209;-63
2023/09/05 02:01:38;;;;;;;6.53;4.60;;;23.30;73.50;;;;;;5103953;28;20263;-63
2023/09/05 02:04:06;;;;;;;4.40;4.00;;;23.30;73.70;;;;;;5113937;27;20212;-63
2023/09/05 02:06:33;;;;;;;4.77;4.23;;;23.30;73.90;;;;;;5097918;28;20215;-63
2023/09/05 02:09:01;;;;;;;8.00;4.10;;;23.30;74.10;;;;;;5096670;28;20243;-63
2023/09/05 02:11:30;;;;;;;9.47;4.90;;;23.20;74.30;;;;;;5093109;28;20622;-63
2023/09/05 02:13:57;;;;;;;5.97;3.80;;;23.20;74.50;;;;;;5102020;28;20204;-62
2023/09/05 02:16:28;;;;;;;7.30;4.20;;;23.30;74.80;;;;;;5101019;28;20217;-63
2023/09/05 02:18:55;;;;;;;5.27;3.93;;;23.20;74.70;;;;;;5094091;28;20586;-63
2023/09/05 02:21:22;;;;;;;4.20;3.70;;;23.30;74.60;;;;;;5104928;28;20250;-63
2023/09/05 02:23:49;;;;;;;4.37;3.33;;;23.30;74.50;;;;;;5096175;28;20217;-63
2023/09/05 02:26:16;;;;;;;4.43;4.03;;;23.30;74.60;;;;;;5076543;28;20657;-62
2023/09/05 02:28:44;;;;;;;5.83;4.30;;;23.30;74.60;;;;;;5096658;28;20201;-63
2023/09/05 02:31:12;;;;;;;5.57;3.90;;;23.30;74.80;;;;;;5082914;28;20610;-63
2023/09/05 02:33:39;;;;;;;5.77;4.10;;;23.30;74.90;;;;;;5099168;28;20202;-63
2023/09/05 02:36:15;;;;;;;3.90;3.50;;;23.30;75.00;;;;;;5104618;28;20532;-63
2023/09/05 02:38:43;;;;;;;5.93;3.93;;;23.30;75.70;;;;;;5103547;28;20221;-63
2023/09/05 02:41:14;;;;;;;6.33;4.10;;;23.30;75.70;;;;;;5095606;28;20517;-63
2023/09/05 02:43:42;;;;;;;5.40;4.00;;;23.30;75.30;;;;;;5100971;28;20539;-63
2023/09/05 02:46:09;;;;;;;5.27;4.00;;;23.20;75.40;;;;;;5102096;28;20194;-63
2023/09/05 02:48:38;;;;;;;4.70;4.30;;;23.30;75.50;;;;;;5101425;28;20220;-63
2023/09/05 02:51:07;;;;;;;3.90;3.50;;;23.20;75.50;;;;;;5096140;28;20196;-63
2023/09/05 02:53:34;;;;;;;5.17;3.60;;;23.30;75.70;;;;;;5097256;28;20632;-63
2023/09/05 02:56:02;;;;;;;5.57;3.53;;;23.20;75.70;;;;;;5095531;28;20911;-63
2023/09/05 02:58:30;;;;;;;5.97;4.27;;;23.20;76.00;;;;;;5092317;28;20241;-64
2023/09/05 03:00:59;;;;;;;4.37;3.73;;;23.20;76.30;;;;;;5097815;28;20193;-63
2023/09/05 03:03:27;;;;;;;7.03;4.13;;;23.20;76.60;;;;;;5094003;27;20251;-63
2023/09/05 03:05:54;;;;;;;4.70;3.80;;;23.20;76.70;;;;;;5102585;28;20197;-63
2023/09/05 03:08:22;;;;;;;4.27;3.50;;;23.10;76.80;;;;;;5101113;28;20216;-63
2023/09/05 03:10:52;;;;;;;5.60;3.30;;;23.10;77.00;;;;;;5088843;28;20212;-63
2023/09/05 03:13:20;;;;;;;5.33;3.30;;;23.10;77.20;;;;;;5099404;28;20641;-63
2023/09/05 03:15:53;;;;;;;3.67;3.37;;;23.10;77.20;;;;;;5089734;28;20202;-64
2023/09/05 03:18:22;;;;;;;4.93;3.57;;;23.20;77.30;;;;;;5085807;28;20645;-63
2023/09/05 03:20:49;;;;;;;4.17;3.77;;;23.10;78.00;;;;;;5107486;28;20192;-63
2023/09/05 03:23:17;;;;;;;8.80;4.53;;;23.20;77.50;;;;;;5101462;28;20206;-63
2023/09/05 03:25:44;;;;;;;6.33;3.70;;;23.20;77.40;;;;;;5101851;28;20204;-63
2023/09/05 03:28:12;;;;;;;7.17;3.90;;;23.20;77.30;;;;;;5099180;28;20215;-63
2023/09/05 03:30:41;;;;;;;4.73;3.70;;;23.20;77.30;;;;;;5094698;28;20312;-63
2023/09/05 03:33:09;;;;;;;4.47;3.50;;;23.20;77.20;;;;;;5095482;28;20263;-63
2023/09/05 03:35:37;;;;;;;5.33;3.80;;;23.20;77.20;;;;;;5097823;28;20205;-63
2023/09/05 03:38:07;;;;;;;5.23;3.57;;;23.30;77.50;;;;;;5097344;28;20197;-63
2023/09/05 03:40:35;;;;;;;5.17;3.67;;;23.20;77.60;;;;;;5081922;28;20218;-63
2023/09/05 03:43:02;;;;;;;7.40;3.73;;;23.20;77.80;;;;;;5094618;28;20197;-63
2023/09/05 03:45:30;;;;;;;5.43;3.47;;;23.20;78.20;;;;;;5094679;28;20198;-63
2023/09/05 03:47:58;;;;;;;3.80;3.40;;;23.10;78.30;;;;;;5094911;28;20189;-63
2023/09/05 03:50:28;;;;;;;3.67;3.37;;;23.10;78.40;;;;;;5093674;28;20205;-63
2023/09/05 03:52:56;;;;;;;6.00;3.90;;;23.10;78.20;;;;;;5096155;28;20196;-63
2023/09/05 03:55:24;;;;;;;5.57;3.43;;;23.10;78.20;;;;;;5100733;28;20211;-63
2023/09/05 03:57:51;;;;;;;3.30;3.00;;;23.10;77.70;;;;;;5101788;28;20672;-64
2023/09/05 04:00:18;;;;;;;5.13;3.63;;;23.10;77.50;;;;;;5100194;28;20295;-63
2023/09/05 04:02:46;;;;;;;6.70;3.13;;;23.00;77.40;;;;;;5108697;28;20208;-63
2023/09/05 04:05:17;;;;;;;3.47;2.87;;;23.00;77.40;;;;;;5098563;28;20657;-63
2023/09/05 04:07:44;;;;;;;7.07;3.10;;;23.00;77.30;;;;;;5099120;28;20203;-64
2023/09/05 04:10:11;;;;;;;7.13;3.40;;;23.00;77.30;;;;;;5100781;28;20709;-63
2023/09/05 04:12:38;;;;;;;4.23;3.60;;;23.00;77.30;;;;;;5096291;28;20626;-63
2023/09/05 04:15:06;;;;;;;6.57;3.60;;;23.00;77.10;;;;;;5095359;28;20209;-63
2023/09/05 04:17:33;;;;;;;4.03;3.60;;;22.90;76.80;;;;;;5093965;28;20210;-63
2023/09/05 04:20:06;;;;;;;7.13;4.00;;;22.90;76.80;;;;;;5092635;28;20214;-63
2023/09/05 04:22:35;;;;;;;3.83;3.50;;;22.90;76.90;;;;;;5098463;28;20287;-63
2023/09/05 04:25:01;;;;;;;6.03;3.90;;;22.90;77.10;;;;;;5096389;28;20216;-63
2023/09/05 04:27:29;;;;;;;4.83;3.60;;;22.80;77.30;;;;;;5095248;28;20193;-64
2023/09/05 04:29:56;;;;;;;4.80;3.87;;;22.80;77.50;;;;;;5093173;28;20201;-63
2023/09/05 04:32:30;;;;;;;4.87;3.87;;;22.70;77.70;;;;;;5089861;28;20619;-62
2023/09/05 04:35:00;;;;;;;4.53;3.63;;;22.70;78.10;;;;;;5085502;28;20199;-63
2023/09/05 04:37:27;;;;;;;11.23;4.70;;;22.60;78.30;;;;;;5103050;27;20221;-63
2023/09/05 04:40:00;;;;;;;4.10;3.70;;;22.60;78.50;;;;;;5080468;28;20235;-63
2023/09/05 04:42:28;;;;;;;4.73;3.80;;;22.50;78.70;;;;;;5082455;28;20201;-62
2023/09/05 04:44:55;;;;;;;5.60;3.90;;;22.50;79.10;;;;;;5094843;28;20772;-62
2023/09/05 04:47:27;;;;;;;4.23;3.20;;;22.40;79.30;;;;;;5096361;28;20676;-63
2023/09/05 04:49:57;;;;;;;7.73;3.77;;;22.40;79.60;;;;;;5099821;28;20211;-63
2023/09/05 04:52:28;;;;;;;4.50;3.60;;;22.30;79.80;;;;;;5094631;28;20281;-63
2023/09/05 04:54:56;;;;;;;8.23;4.10;;;22.30;80.10;;;;;;5098607;28;20197;-63
2023/09/05 04:57:23;;;;;;;9.43;3.80;;;22.20;80.40;;;;;;5097902;28;20243;-63
2023/09/05 04:59:56;;;;;;;3.97;3.43;;;22.20;80.60;;;;;;5093727;28;20252;-63
2023/09/05 05:02:25;;;;;;;4.73;4.23;;;22.20;80.90;;;;;;5097191;28;20201;-63
2023/09/05 05:04:52;;;;;;;6.27;3.60;;;22.20;81.00;;;;;;5092308;28;20700;-63
2023/09/05 05:07:20;;;;;;;4.17;3.70;;;22.20;81.10;;;;;;5093547;28;20262;-63
2023/09/05 05:09:47;;;;;;;4.07;3.63;;;22.10;81.20;;;;;;5094143;28;20204;-63
2023/09/05 05:12:15;;;;;;;8.27;4.17;;;22.10;81.30;;;;;;5089822;28;20194;-63
2023/09/05 05:14:43;;;;;;;6.70;4.00;;;22.10;81.40;;;;;;5095556;28;20208;-63
2023/09/05 05:17:12;;;;;;;4.23;3.80;;;22.10;81.30;;;;;;5098462;28;20202;-63
2023/09/05 05:19:40;;;;;;;3.93;3.60;;;22.10;81.20;;;;;;5097222;28;20752;-63
2023/09/05 05:22:07;;;;;;;5.40;3.27;;;22.10;80.90;;;;;;5090199;28;20196;-63
2023/09/05 05:24:34;;;;;;;6.90;3.47;;;22.10;80.70;;;;;;5090937;28;20639;-63
2023/09/05 05:27:01;;;;;;;5.00;3.30;;;22.20;80.60;;;;;;5088962;28;20190;-63
2023/09/05 05:29:32;;;;;;;7.03;3.77;;;22.20;80.40;;;;;;5092950;28;20240;-63
2023/09/05 05:32:00;;;;;;;6.03;3.33;;;22.20;80.10;;;;;;5095309;28;20313;-63
2023/09/05 05:34:29;;;;;;;5.43;3.57;;;22.30;80.00;;;;;;5104846;28;20635;-64
2023/09/05 05:36:57;;;;;;;5.47;3.43;;;22.30;80.00;;;;;;5101274;28;20268;-63
2023/09/05 05:39:25;;;;;;;6.87;3.30;;;22.40;79.60;;;;;;5096975;28;20225;-63
2023/09/05 05:41:53;;;;;;;5.43;3.53;;;22.40;79.30;;;;;;5095400;28;20710;-63
2023/09/05 05:44:20;;;;;;;4.70;3.17;;;22.50;79.10;;;;;;5097330;28;20268;-63
2023/09/05 05:46:47;;;;;;;5.03;4.07;;;22.50;78.90;;;;;;5096131;28;20193;-62
2023/09/05 05:49:14;;;;;;;5.33;3.17;;;22.50;78.90;;;;;;5098538;28;20661;-61
2023/09/05 05:51:41;;;;;;;5.90;3.23;;;22.60;78.90;;;;;;5093961;28;20215;-61
2023/09/05 05:54:08;;;;;;;6.60;3.50;;;22.70;78.60;;;;;;5090548;28;20646;-61
2023/09/05 05:56:35;;;;;;;4.43;3.53;;;22.80;78.10;;;;;;5092741;28;20241;-62
2023/09/05 05:59:02;;;;;;;3.93;3.30;;;22.80;77.80;;;;;;5094294;28;20288;-62
2023/09/05 06:01:29;;;;;;;4.60;3.23;;;22.90;77.70;;;;;;5097281;28;20193;-62
2023/09/05 06:03:56;;;;;;;3.70;3.30;;;23.00;77.40;;;;;;5099617;28;20186;-61
2023/09/05 06:06:24;;;;;;;7.83;3.30;;;23.10;77.10;;;;;;5099233;28;20213;-62
2023/09/05 06:08:51;;;;;;;6.40;2.87;;;23.30;76.70;;;;;;5098766;28;20286;-62
2023/09/05 06:11:18;;;;;;;6.80;3.33;;;23.60;75.60;;;;;;5089225;28;20200;-62
2023/09/05 06:13:45;;;;;;;4.50;3.20;;;23.80;74.30;;;;;;5092499;28;20207;-62
2023/09/05 06:16:12;;;;;;;5.13;2.77;;;24.10;72.90;;;;;;5086444;28;20229;-62
2023/09/05 06:18:39;;;;;;;4.47;2.60;;;24.40;71.30;;;;;;5099991;28;20235;-61
2023/09/05 06:21:06;;;;;;;6.50;3.03;;;24.50;70.10;;;;;;5101581;28;20203;-62
2023/09/05 06:23:35;;;;;;;12.43;3.10;;;24.60;69.70;;;;;;5097998;28;20200;-61
2023/09/05 06:26:02;;;;;;;11.93;2.50;;;24.70;69.30;;;;;;5095996;28;20527;-61
2023/09/05 06:28:29;;;;;;;2.70;2.50;;;24.70;68.90;;;;;;5094652;28;20251;-61
2023/09/05 06:30:57;;;;;;;6.43;2.20;;;24.70;68.00;;;;;;5094523;28;20206;-61
2023/09/05 06:33:26;;;;;;;7.97;2.77;;;24.80;67.60;;;;;;5098319;28;20204;-62
2023/09/05 06:35:53;;;;;;;4.23;2.30;;;24.80;67.00;;;;;;5099684;28;20192;-62
2023/09/05 06:38:22;;;;;;;8.27;2.77;;;24.80;65.50;;;;;;5094861;28;20570;-61
2023/09/05 06:40:50;;;;;;;9.47;2.73;;;24.80;66.00;;;;;;5093044;28;20213;-62
2023/09/05 06:43:17;;;;;;;5.97;2.17;;;24.70;66.30;;;;;;5091648;28;20284;-62
2023/09/05 06:45:44;;;;;;;4.17;2.50;;;24.70;66.20;;;;;;5094086;28;20660;-62
2023/09/05 06:48:12;;;;;;;9.20;2.43;;;24.60;66.30;;;;;;5095238;28;20614;-62
2023/09/05 06:50:39;;;;;;;3.13;2.30;;;24.60;65.00;;;;;;5094306;28;20284;-62
2023/09/05 06:53:06;;;;;;;5.17;2.43;;;24.50;65.20;;;;;;5094909;28;20196;-62
2023/09/05 06:55:34;;;;;;;2.20;1.93;;;24.50;65.60;;;;;;5098844;28;20360;-62
2023/09/05 06:58:02;;;;;;;2.60;2.40;;;24.50;65.30;;;;;;5099290;28;20337;-61
2023/09/05 07:00:29;;;;;;;4.27;2.30;;;24.40;64.70;;;;;;5092398;28;20271;-61
2023/09/05 07:02:56;;;;;;;4.93;2.37;;;24.30;65.20;;;;;;5090300;28;20288;-62
2023/09/05 07:05:24;;;;;;;3.63;2.37;;;24.30;65.70;;;;;;5098623;28;20200;-62
2023/09/05 07:07:51;;;;;;;3.53;2.10;;;24.40;65.50;;;;;;5099191;28;20196;-62
2023/09/05 07:10:18;;;;;;;2.50;2.07;;;24.40;65.70;;;;;;5097676;28;20220;-61
2023/09/05 07:12:45;;;;;;;4.83;2.80;;;24.50;65.60;;;;;;5095907;28;20229;-62
2023/09/05 07:15:12;;;;;;;3.60;2.50;;;24.50;65.10;;;;;;5097441;28;20799;-62
2023/09/05 07:17:39;;;;;;;6.87;2.13;;;24.60;64.60;;;;;;5096232;28;20537;-62
2023/09/05 07:20:09;;;;;;;3.60;2.47;;;24.70;64.10;;;;;;5099656;28;20216;-62
2023/09/05 07:22:37;;;;;;;4.97;2.90;;;24.70;63.10;;;;;;5100050;28;20211;-61
2023/09/05 07:25:04;;;;;;;9.97;2.27;;;24.70;63.80;;;;;;5100539;28;20202;-61
2023/09/05 07:27:31;;;;;;;2.80;2.40;;;24.80;63.90;;;;;;5091770;28;20201;-62
2023/09/05 07:29:58;;;;;;;4.37;2.27;;;24.90;63.30;;;;;;5088042;28;20500;-62
2023/09/05 07:32:25;;;;;;;5.47;2.80;;;25.00;62.30;;;;;;5091089;28;20219;-62
2023/09/05 07:34:52;;;;;;;5.10;2.30;;;25.20;62.60;;;;;;5088225;28;20202;-62
2023/09/05 07:37:19;;;;;;;5.83;2.40;;;25.20;62.10;;;;;;5092701;28;20224;-62
2023/09/05 07:39:50;;;;;;;5.70;2.10;;;25.40;62.70;;;;;;5088788;28;20238;-62
2023/09/05 07:42:17;;;;;;;4.47;2.50;;;25.50;61.60;;;;;;5096794;28;20215;-61
2023/09/05 07:44:44;;;;;;;3.27;2.10;;;25.50;61.10;;;;;;5096021;28;20204;-62
2023/09/05 07:47:11;;;;;;;5.30;3.00;;;25.60;60.00;;;;;;5096478;28;20206;-62
2023/09/05 07:49:40;;;;;;;8.37;2.50;;;25.50;59.80;;;;;;5096744;28;20210;-62
2023/09/05 07:52:08;;;;;;;5.77;2.70;;;25.50;60.00;;;;;;5100252;28;20208;-62
2023/09/05 07:54:36;;;;;;;2.57;2.33;;;25.50;59.60;;;;;;5099344;28;20208;-62
2023/09/05 07:57:04;;;;;;;3.67;2.03;;;25.50;59.50;;;;;;5094829;28;20229;-62
2023/09/05 07:59:33;;;;;;;5.33;2.93;;;25.50;59.90;;;;;;5096255;28;20298;-62
2023/09/05 08:02:01;;;;;;;4.60;2.37;;;25.50;59.30;;;;;;5097506;28;20533;-62
2023/09/05 08:04:29;;;;;;;3.00;2.70;;;25.50;60.10;;;;;;5090926;28;20649;-62
2023/09/05 08:06:58;;;;;;;9.27;2.53;;;25.50;59.30;;;;;;5092281;28;20256;-62
2023/09/05 08:09:25;;;;;;;5.90;2.73;;;25.50;59.50;;;;;;5093600;28;20231;-62
2023/09/05 08:11:52;;;;;;;5.10;2.80;;;25.50;59.90;;;;;;5097630;28;20196;-62
2023/09/05 08:14:19;;;;;;;5.37;2.63;;;25.60;58.70;;;;;;5097890;28;20206;-62
2023/09/05 08:16:46;;;;;;;5.00;2.70;;;25.70;58.90;;;;;;5092725;28;20313;-61
2023/09/05 08:19:13;;;;;;;6.13;2.50;;;25.90;59.80;;;;;;5089472;28;20198;-62
2023/09/05 08:21:40;;;;;;;4.80;3.03;;;26.20;57.50;;;;;;5086167;28;20639;-61
2023/09/05 08:24:09;;;;;;;5.97;2.60;;;26.30;56.40;;;;;;5087346;28;20599;-62
2023/09/05 08:26:37;;;;;;;3.63;2.70;;;26.40;56.30;;;;;;5093456;28;20281;-61
2023/09/05 08:29:04;;;;;;;5.83;2.70;;;26.30;55.40;;;;;;5090920;28;20229;-62
2023/09/05 08:31:31;;;;;;;9.83;2.87;;;26.40;55.20;;;;;;5092357;28;20197;-63
2023/09/05 08:33:58;;;;;;;6.13;2.63;;;26.40;56.10;;;;;;5099306;27;20540;-61
2023/09/05 08:36:25;;;;;;;6.33;3.40;;;26.60;55.90;;;;;;5095553;28;20240;-63
2023/09/05 08:38:53;;;;;;;5.57;2.70;;;26.60;55.10;;;;;;5096317;28;20235;-62
2023/09/05 08:41:20;;;;;;;6.60;2.30;;;26.60;55.70;;;;;;5101087;28;20315;-62
2023/09/05 08:43:47;;;;;;;2.83;2.63;;;26.60;55.10;;;;;;5094323;28;20196;-62
2023/09/05 08:46:15;;;;;;;3.30;2.87;;;26.70;55.20;;;;;;5096377;28;20200;-62
2023/09/05 08:48:42;;;;;;;4.47;2.63;;;26.80;55.60;;;;;;5080873;28;20201;-61
2023/09/05 08:51:22;;;;;;;4.07;2.80;;;26.90;54.50;;;;;;5094027;28;20620;-61
2023/09/05 08:53:59;;;;;;;5.90;3.20;;;27.00;54.20;;;;;;5088744;28;20215;-62
2023/09/05 08:56:26;;;;;;;7.10;2.87;;;27.10;53.10;;;;;;5086126;28;20196;-61
2023/09/05 08:58:55;;;;;;;3.07;2.67;;;27.10;52.90;;;;;;5091572;28;20299;-61
2023/09/05 09:01:24;;;;;;;6.30;2.70;;;27.10;53.30;;;;;;5095459;28;20231;-61
2023/09/05 09:03:54;;;;;;;6.87;2.87;;;27.00;53.20;;;;;;5098835;28;20197;-62
2023/09/05 09:06:25;;;;;;;6.40;2.90;;;27.00;53.40;;;;;;5097022;28;20618;-62
2023/09/05 09:08:53;;;;;;;9.30;3.23;;;26.90;52.30;;;;;;5088511;28;20224;-62
2023/09/05 09:11:22;;;;;;;6.90;3.07;;;26.80;52.90;;;;;;5087928;28;20225;-62
2023/09/05 09:13:56;;;;;;;9.17;2.80;;;26.80;53.10;;;;;;5082925;28;20303;-62
2023/09/05 09:16:23;;;;;;;3.70;2.40;;;26.60;52.60;;;;;;5090705;28;20217;-62
2023/09/05 09:19:02;;;;;;;9.10;3.37;;;26.60;52.40;;;;;;5095988;28;20239;-62
2023/09/05 09:21:31;;;;;;;4.27;2.87;;;26.50;53.00;;;;;;5099972;28;20221;-61
2023/09/05 09:23:59;;;;;;;5.20;2.93;;;26.60;52.60;;;;;;5097789;28;20294;-61
2023/09/05 09:26:27;;;;;;;8.67;2.67;;;26.60;52.20;;;;;;5093422;28;20538;-61
2023/09/05 09:28:54;;;;;;;6.77;2.93;;;26.60;51.60;;;;;;5096628;28;20196;-62
2023/09/05 09:31:27;;;;;;;3.90;2.60;;;26.70;52.40;;;;;;5096246;28;20304;-66
2023/09/05 09:33:58;;;;;;;8.20;2.83;;;26.70;51.00;;;;;;5095303;28;20543;-65
2023/09/05 09:36:37;;;;;;;6.13;2.47;;;26.80;50.90;;;;;;5088855;28;20267;-63
2023/09/05 09:39:12;;;;;;;4.70;3.23;;;26.90;51.80;;;;;;5087388;28;20202;-63
2023/09/05 09:41:47;;;;;;;4.67;3.00;;;27.00;50.80;;;;;;5088427;28;20546;-67
2023/09/05 09:44:31;;;;;;;4.40;3.00;;;27.00;51.20;;;;;;5091086;28;20511;-65
2023/09/05 09:47:00;;;;;;;3.60;2.43;;;27.00;52.30;;;;;;5089983;28;20201;-66
2023/09/05 09:49:29;;;;;;;6.30;2.80;;;27.10;52.20;;;;;;5095235;28;20199;-65
2023/09/05 09:52:02;;;;;;;3.60;2.70;;;27.20;53.20;;;;;;5093981;28;20192;-66
2023/09/05 09:54:36;;;;;;;12.03;3.27;;;27.40;53.50;;;;;;5085658;28;20205;-65
2023/09/05 09:57:05;;;;;;;8.93;2.90;;;27.50;52.40;;;;;;5100505;28;21396;-65
2023/09/05 09:59:37;;;;;;;3.87;3.10;;;27.60;53.30;;;;;;5087301;28;20198;-64
2023/09/05 10:02:12;;;;;;;9.30;3.00;;;27.70;53.50;;;;;;5093696;28;20668;-66
2023/09/05 10:04:43;;;;;;;4.77;3.03;;;27.70;53.60;;;;;;5097436;28;20196;-65
2023/09/05 10:07:17;;;;;;;5.83;3.10;;;27.70;53.70;;;;;;5103525;28;20662;-65
2023/09/05 10:09:45;;;;;;;6.23;3.30;;;27.80;54.50;;;;;;5101470;28;20192;-64
2023/09/05 10:12:18;;;;;;;4.00;2.70;;;28.00;53.90;;;;;;5097751;28;20565;-67
2023/09/05 10:14:48;;;;;;;5.73;2.97;;;28.20;53.10;;;;;;5092961;28;20199;-66
2023/09/05 10:17:17;;;;;;;4.27;3.30;;;28.30;53.20;;;;;;5096027;28;20208;-64
2023/09/05 10:19:44;;;;;;;5.63;2.73;;;28.40;52.80;;;;;;5098778;28;20646;-65
2023/09/05 10:22:16;;;;;;;6.33;2.80;;;28.40;52.10;;;;;;5103418;28;20211;-67
2023/09/05 10:24:44;;;;;;;5.60;2.97;;;28.30;51.20;;;;;;5093904;28;20190;-66
2023/09/05 10:27:12;;;;;;;6.63;2.80;;;28.10;52.00;;;;;;5098014;28;20203;-66
2023/09/05 10:29:44;;;;;;;5.57;2.43;;;27.90;52.20;;;;;;5092641;28;20262;-64
2023/09/05 10:32:19;;;;;;;4.57;2.77;;;27.70;51.80;;;;;;5090329;28;20199;-65
2023/09/05 10:34:50;;;;;;;7.10;3.23;;;27.50;51.50;;;;;;5091066;28;20656;-66
2023/09/05 10:37:22;;;;;;;5.00;2.90;;;27.40;50.70;;;;;;5094180;28;20189;-69
2023/09/05 10:39:55;;;;;;;8.63;2.80;;;27.10;51.20;;;;;;5095190;28;20202;-65
2023/09/05 10:42:31;;;;;;;4.43;2.50;;;27.00;51.40;;;;;;5099271;28;20550;-64
2023/09/05 10:45:22;;;;;;;9.37;2.80;;;26.90;51.70;;;;;;5097765;28;20204;-63
2023/09/05 10:47:56;;;;;;;5.87;3.00;;;26.80;51.80;;;;;;5097222;28;20201;-63
2023/09/05 10:50:23;;;;;;;5.90;2.93;;;26.80;52.10;;;;;;5098824;28;20200;-65
2023/09/05 10:53:11;;;;;;;4.73;3.07;;;26.80;52.60;;;;;;5097515;28;20297;-65
2023/09/05 10:55:44;;;;;;;4.70;2.80;;;26.80;53.30;;;;;;5096367;28;20557;-65
2023/09/05 10:58:37;;;;;;;11.43;2.63;;;26.80;53.20;;;;;;5098561;28;20690;-64
2023/09/05 11:01:47;;;;;;;5.67;2.83;;;26.90;51.00;;;;;;5093808;28;20210;-66
2023/09/05 11:04:19;;;;;;;7.83;3.00;;;27.00;50.50;;;;;;5049728;28;20699;-65
2023/09/05 11:06:58;;;;;;;4.90;2.97;;;27.10;50.70;;;;;;5071988;28;20597;-65
2023/09/05 11:09:25;;;;;;;9.13;3.43;;;27.40;50.50;;;;;;5098513;28;20224;-64
2023/09/05 11:11:53;;;;;;;6.73;3.07;;;27.70;48.90;;;;;;5097453;28;20212;-64
2023/09/05 11:14:33;;;;;;;7.53;3.70;;;27.90;47.70;;;;;;5099135;28;20216;-65
2023/09/05 11:17:01;;;;;;;5.13;2.90;;;28.10;48.80;;;;;;5088480;28;20196;-65
2023/09/05 11:19:45;;;;;;;5.37;2.73;;;28.40;49.20;;;;;;5088267;28;20290;-65
2023/09/05 11:22:23;;;;;;;5.20;2.60;;;28.70;47.90;;;;;;5087564;28;20216;-65
2023/09/05 11:24:58;;;;;;;3.30;2.40;;;28.70;47.30;;;;;;5092445;28;20190;-65
2023/09/05 11:27:29;;;;;;;6.30;2.83;;;28.90;47.10;;;;;;5092567;28;20212;-65
2023/09/05 11:29:59;;;;;;;12.60;2.70;;;28.80;47.40;;;;;;5094631;28;20554;-65
2023/09/05 11:32:34;;;;;;;4.57;2.87;;;28.80;47.40;;;;;;5098310;28;20200;-65
2023/09/05 11:35:04;;;;;;;6.70;2.97;;;28.90;46.50;;;;;;5097980;28;20197;-65
2023/09/05 11:37:31;;;;;;;3.27;2.50;;;29.00;46.70;;;;;;5094264;28;20635;-65
2023/09/05 11:40:23;;;;;;;3.37;2.90;;;29.10;46.60;;;;;;5095869;28;20200;-65
2023/09/05 11:43:01;;;;;;;4.60;3.00;;;29.10;45.60;;;;;;5097236;28;20203;-65
2023/09/05 11:45:30;;;;;;;5.73;3.10;;;29.10;45.50;;;;;;5092793;28;20229;-66
2023/09/05 11:47:59;;;;;;;4.33;2.63;;;29.00;44.70;;;;;;5095632;28;20254;-66
2023/09/05 11:50:27;;;;;;;4.20;2.70;;;29.00;44.60;;;;;;5094687;28;20208;-65
2023/09/05 11:52:55;;;;;;;5.90;2.90;;;28.90;45.90;;;;;;5091999;28;20518;-65
2023/09/05 11:55:25;;;;;;;5.07;2.23;;;29.00;45.90;;;;;;5093401;28;20205;-65
2023/09/05 11:57:53;;;;;;;4.87;2.87;;;29.00;43.20;;;;;;5095240;28;20724;-65
2023/09/05 12:00:25;;;;;;;3.97;2.70;;;29.00;44.00;;;;;;5099209;28;20223;-65
2023/09/05 12:02:54;;;;;;;7.27;2.77;;;29.10;43.60;;;;;;5101536;28;20201;-65
2023/09/05 12:05:21;;;;;;;7.43;3.13;;;29.10;44.20;;;;;;5089382;28;20263;-65
2023/09/05 12:07:50;;;;;;;7.63;2.60;;;29.10;45.10;;;;;;5087090;28;20627;-65
2023/09/05 12:10:17;;;;;;;3.07;2.70;;;29.30;45.40;;;;;;5084825;28;20200;-65
2023/09/05 12:13:05;;;;;;;4.97;2.73;;;29.30;44.40;;;;;;5087991;28;20201;-65
2023/09/05 12:15:33;;;;;;;10.50;2.67;;;29.50;44.30;;;;;;5090719;28;20299;-65
2023/09/05 12:18:04;;;;;;;5.97;2.63;;;29.40;44.20;;;;;;5101941;28;20207;-65
2023/09/05 12:20:32;;;;;;;5.10;3.30;;;29.40;45.20;;;;;;5094677;28;20236;-65
2023/09/05 12:22:59;;;;;;;4.83;2.90;;;29.50;46.10;;;;;;5098268;28;20204;-65
2023/09/05 12:25:28;;;;;;;4.27;2.43;;;29.50;44.20;;;;;;5094669;28;20313;-65
2023/09/05 12:28:15;;;;;;;4.30;3.20;;;29.40;44.60;;;;;;5090173;28;20220;-65
2023/09/05 12:30:42;;;;;;;5.23;3.10;;;29.40;44.60;;;;;;5098052;28;20592;-65
2023/09/05 12:33:09;;;;;;;4.27;2.80;;;29.30;44.90;;;;;;5095489;28;20208;-65
2023/09/05 12:35:37;;;;;;;4.10;3.03;;;29.20;45.70;;;;;;5091948;28;20198;-66
2023/09/05 12:38:04;;;;;;;6.47;3.30;;;29.10;44.50;;;;;;5088118;28;20826;-66
2023/09/05 12:40:34;;;;;;;4.17;3.30;;;29.10;45.50;;;;;;5089495;28;20658;-66
2023/09/05 12:43:02;;;;;;;7.20;2.50;;;29.10;45.70;;;;;;5091887;28;20190;-65
2023/09/05 12:45:29;;;;;;;4.63;2.60;;;29.20;45.40;;;;;;5094256;28;20197;-66
2023/09/05 12:47:56;;;;;;;4.00;2.60;;;29.30;44.60;;;;;;5093662;28;20207;-67
2023/09/05 12:50:36;;;;;;;8.20;3.47;;;29.30;44.80;;;;;;5099953;28;20212;-66
2023/09/05 12:53:05;;;;;;;3.97;2.80;;;29.40;44.60;;;;;;5099478;28;20197;-65
2023/09/05 12:55:33;;;;;;;5.60;3.07;;;29.30;44.50;;;;;;5098347;28;20201;-65
2023/09/05 12:58:04;;;;;;;5.20;2.63;;;29.20;45.30;;;;;;5081709;28;20304;-67